sensor_id;sensor_type;location;lat;lon;timestamp;pressure;altitude;pressure_sealevel;temperature;humidity
61786;BME280;47692;53.714;11.372;2024-02-21T00:00:27;101507.16;;;6.72;100.00
61786;BME280;47692;53.714;11.372;2024-02-21T00:02:53;101509.78;;;6.75;100.00
61786;BME280;47692;53.714;11.372;2024-02-21T00:05:18;101516.72;;;6.76;100.00
61786;BME280;47692;53.714;11.372;2024-02-21T00:07:43;101504.56;;;6.72;100.00
61786;BME280;47692;53.714;11.372;2024-02-21T00:10:08;101504.56;;;6.72;100.00
61786;BME280;47692;53.714;11.372;2024-02-21T00:12:34;101511.50;;;6.70;100.00
61786;BME280;47692;53.714;11.372;2024-02-21T00:15:00;101506.25;;;6.67;100.00
61786;BME280;47692;53.714;11.372;2024-02-21T00:17:25;101513.19;;;6.68;100.00
61786;BME280;47692;53.714;11.372;2024-02-21T00:19:52;101507.19;;;6.74;100.00
61786;BME280;47692;53.714;11.372;2024-02-21T00:22:17;101499.38;;;6.69;100.00
61786;BME280;47692;53.714;11.372;2024-02-21T00:24:43;101495.03;;;6.71;100.00
61786;BME280;47692;53.714;11.372;2024-02-21T00:27:08;101502.00;;;6.75;100.00
61786;BME280;47692;53.714;11.372;2024-02-21T00:29:33;101495.06;;;6.76;100.00
61786;BME280;47692;53.714;11.372;2024-02-21T00:31:59;101489.84;;;6.71;100.00
61786;BME280;47692;53.714;11.372;2024-02-21T00:34:24;101493.34;;;6.79;100.00
61786;BME280;47692;53.714;11.372;2024-02-21T00:36:50;101491.63;;;6.77;100.00
61786;BME280;47692;53.714;11.372;2024-02-21T00:39:15;101487.28;;;6.74;100.00
61786;BME280;47692;53.714;11.372;2024-02-21T00:41:43;101487.28;;;6.74;100.00
61786;BME280;47692;53.714;11.372;2024-02-21T00:44:09;101481.19;;;6.72;100.00
61786;BME280;47692;53.714;11.372;2024-02-21T00:46:35;101480.38;;;6.76;100.00
61786;BME280;47692;53.714;11.372;2024-02-21T00:49:00;101477.78;;;6.79;100.00
61786;BME280;47692;53.714;11.372;2024-02-21T00:51:26;101464.81;;;6.76;100.00
61786;BME280;47692;53.714;11.372;2024-02-21T00:53:51;101459.63;;;6.76;100.00
61786;BME280;47692;53.714;11.372;2024-02-21T00:56:16;101454.44;;;6.79;100.00
61786;BME280;47692;53.714;11.372;2024-02-21T00:58:41;101455.28;;;6.75;100.00
61786;BME280;47692;53.714;11.372;2024-02-21T01:01:07;101452.72;;;6.82;100.00
61786;BME280;47692;53.714;11.372;2024-02-21T01:03:32;101442.34;;;6.85;100.00
61786;BME280;47692;53.714;11.372;2024-02-21T01:05:57;101430.22;;;6.81;100.00
61786;BME280;47692;53.714;11.372;2024-02-21T01:08:23;101432.81;;;6.79;100.00
61786;BME280;47692;53.714;11.372;2024-02-21T01:10:48;101427.63;;;6.82;100.00
61786;BME280;47692;53.714;11.372;2024-02-21T01:13:13;101427.63;;;6.82;100.00
61786;BME280;47692;53.714;11.372;2024-02-21T01:15:39;101416.38;;;6.82;100.00
61786;BME280;47692;53.714;11.372;2024-02-21T01:18:04;101416.38;;;6.85;100.00
61786;BME280;47692;53.714;11.372;2024-02-21T01:20:30;101406.84;;;6.82;100.00
61786;BME280;47692;53.714;11.372;2024-02-21T01:22:55;101415.53;;;6.86;100.00
61786;BME280;47692;53.714;11.372;2024-02-21T01:25:20;101399.09;;;6.87;100.00
61786;BME280;47692;53.714;11.372;2024-02-21T01:27:46;101392.19;;;6.89;100.00
61786;BME280;47692;53.714;11.372;2024-02-21T01:30:11;101390.41;;;6.85;100.00
61786;BME280;47692;53.714;11.372;2024-02-21T01:32:37;101396.50;;;6.88;100.00
61786;BME280;47692;53.714;11.372;2024-02-21T01:35:02;101401.69;;;6.88;100.00
61786;BME280;47692;53.714;11.372;2024-02-21T01:37:27;101384.38;;;6.93;100.00
61786;BME280;47692;53.714;11.372;2024-02-21T01:39:53;101379.19;;;6.93;100.00
61786;BME280;47692;53.714;11.372;2024-02-21T01:42:18;101381.78;;;6.92;100.00
61786;BME280;47692;53.714;11.372;2024-02-21T01:44:43;101370.56;;;6.93;100.00
61786;BME280;47692;53.714;11.372;2024-02-21T01:47:10;101376.63;;;6.95;100.00
61786;BME280;47692;53.714;11.372;2024-02-21T01:49:36;101371.41;;;6.92;100.00
61786;BME280;47692;53.714;11.372;2024-02-21T01:52:02;101362.75;;;6.90;100.00
61786;BME280;47692;53.714;11.372;2024-02-21T01:54:28;101366.25;;;6.95;100.00
61786;BME280;47692;53.714;11.372;2024-02-21T01:56:54;101349.78;;;6.87;100.00
61786;BME280;47692;53.714;11.372;2024-02-21T01:59:21;101358.44;;;6.92;100.00
61786;BME280;47692;53.714;11.372;2024-02-21T02:01:47;101354.09;;;6.88;100.00
61786;BME280;47692;53.714;11.372;2024-02-21T02:04:13;101361.03;;;6.92;100.00
61786;BME280;47692;53.714;11.372;2024-02-21T02:06:38;101348.06;;;6.97;100.00
61786;BME280;47692;53.714;11.372;2024-02-21T02:09:04;101342.00;;;6.93;100.00
61786;BME280;47692;53.714;11.372;2024-02-21T02:11:31;101354.97;;;6.93;100.00
61786;BME280;47692;53.714;11.372;2024-02-21T02:13:57;101345.47;;;6.89;100.00
61786;BME280;47692;53.714;11.372;2024-02-21T02:16:22;101341.97;;;6.90;100.00
61786;BME280;47692;53.714;11.372;2024-02-21T02:18:47;101341.13;;;6.92;100.00
61786;BME280;47692;53.714;11.372;2024-02-21T02:21:34;101335.06;;;6.92;100.00
61786;BME280;47692;53.714;11.372;2024-02-21T02:24:02;101333.31;;;6.91;100.00
61786;BME280;47692;53.714;11.372;2024-02-21T02:26:28;101323.81;;;6.85;100.00
61786;BME280;47692;53.714;11.372;2024-02-21T02:28:53;101326.38;;;6.81;100.00
61786;BME280;47692;53.714;11.372;2024-02-21T02:31:18;101315.13;;;6.78;100.00
61786;BME280;47692;53.714;11.372;2024-02-21T02:33:44;101316.88;;;6.79;100.00
61786;BME280;47692;53.714;11.372;2024-02-21T02:36:09;101311.69;;;6.79;100.00
61786;BME280;47692;53.714;11.372;2024-02-21T02:38:35;101312.56;;;6.82;100.00
61786;BME280;47692;53.714;11.372;2024-02-21T02:41:00;101305.59;;;6.76;100.00
61786;BME280;47692;53.714;11.372;2024-02-21T02:43:25;101297.81;;;6.76;100.00
61786;BME280;47692;53.714;11.372;2024-02-21T02:45:51;101284.84;;;6.77;100.00
61786;BME280;47692;53.714;11.372;2024-02-21T02:48:16;101289.19;;;6.77;100.00
61786;BME280;47692;53.714;11.372;2024-02-21T02:50:41;101281.41;;;6.75;100.00
61786;BME280;47692;53.714;11.372;2024-02-21T02:53:06;101279.63;;;6.71;100.00
61786;BME280;47692;53.714;11.372;2024-02-21T02:55:32;101289.19;;;6.80;100.00
61786;BME280;47692;53.714;11.372;2024-02-21T02:57:57;101267.53;;;6.73;100.00
61786;BME280;47692;53.714;11.372;2024-02-21T03:00:23;101251.13;;;6.74;100.00
61786;BME280;47692;53.714;11.372;2024-02-21T03:02:49;101239.88;;;6.75;100.00
61786;BME280;47692;53.714;11.372;2024-02-21T03:05:16;101228.59;;;6.75;100.00
61786;BME280;47692;53.714;11.372;2024-02-21T03:07:42;101205.25;;;6.73;100.00
61786;BME280;47692;53.714;11.372;2024-02-21T03:10:08;101216.53;;;6.74;100.00
61786;BME280;47692;53.714;11.372;2024-02-21T03:12:33;101234.66;;;6.72;100.00
61786;BME280;47692;53.714;11.372;2024-02-21T03:14:58;101241.59;;;6.73;100.00
61786;BME280;47692;53.714;11.372;2024-02-21T03:17:24;101241.63;;;6.76;100.00
61786;BME280;47692;53.714;11.372;2024-02-21T03:19:52;101231.22;;;6.76;100.00
61786;BME280;47692;53.714;11.372;2024-02-21T03:22:17;101232.09;;;6.80;100.00
61786;BME280;47692;53.714;11.372;2024-02-21T03:24:43;101230.38;;;6.81;100.00
61786;BME280;47692;53.714;11.372;2024-02-21T03:27:08;101227.75;;;6.81;100.00
61786;BME280;47692;53.714;11.372;2024-02-21T03:29:34;101230.34;;;6.82;100.00
61786;BME280;47692;53.714;11.372;2024-02-21T03:31:59;101218.25;;;6.84;100.00
61786;BME280;47692;53.714;11.372;2024-02-21T03:34:24;101222.59;;;6.87;100.00
61786;BME280;47692;53.714;11.372;2024-02-21T03:36:49;101222.56;;;6.90;100.00
61786;BME280;47692;53.714;11.372;2024-02-21T03:39:15;101228.63;;;6.92;100.00
61786;BME280;47692;53.714;11.372;2024-02-21T03:41:40;101212.19;;;6.90;100.00
61786;BME280;47692;53.714;11.372;2024-02-21T03:44:05;101224.31;;;6.94;100.00
61786;BME280;47692;53.714;11.372;2024-02-21T03:46:31;101219.13;;;6.94;100.00
61786;BME280;47692;53.714;11.372;2024-02-21T03:48:57;101217.38;;;6.96;100.00
61786;BME280;47692;53.714;11.372;2024-02-21T03:51:22;101213.06;;;6.97;100.00
61786;BME280;47692;53.714;11.372;2024-02-21T03:53:47;101220.84;;;6.98;100.00
61786;BME280;47692;53.714;11.372;2024-02-21T03:56:13;101220.00;;;6.99;100.00
61786;BME280;47692;53.714;11.372;2024-02-21T03:58:38;101210.47;;;6.98;100.00
61786;BME280;47692;53.714;11.372;2024-02-21T04:01:03;101212.19;;;6.99;100.00
61786;BME280;47692;53.714;11.372;2024-02-21T04:03:30;101220.88;;;7.01;100.00
61786;BME280;47692;53.714;11.372;2024-02-21T04:05:55;101220.88;;;7.01;100.00
61786;BME280;47692;53.714;11.372;2024-02-21T04:08:22;101221.72;;;7.02;100.00
61786;BME280;47692;53.714;11.372;2024-02-21T04:10:47;101222.59;;;7.05;100.00
61786;BME280;47692;53.714;11.372;2024-02-21T04:13:12;101220.84;;;7.04;100.00
61786;BME280;47692;53.714;11.372;2024-02-21T04:15:38;101220.84;;;7.04;100.00
61786;BME280;47692;53.714;11.372;2024-02-21T04:18:03;101219.97;;;7.07;100.00
61786;BME280;47692;53.714;11.372;2024-02-21T04:20:28;101215.66;;;7.10;100.00
61786;BME280;47692;53.714;11.372;2024-02-21T04:22:54;101223.44;;;7.12;100.00
61786;BME280;47692;53.714;11.372;2024-02-21T04:25:20;101214.78;;;7.11;100.00
61786;BME280;47692;53.714;11.372;2024-02-21T04:27:45;101190.56;;;7.13;100.00
61786;BME280;47692;53.714;11.372;2024-02-21T04:30:11;101205.25;;;7.14;100.00
61786;BME280;47692;53.714;11.372;2024-02-21T04:32:36;101189.66;;;7.14;100.00
61786;BME280;47692;53.714;11.372;2024-02-21T04:35:02;101178.44;;;7.15;100.00
61786;BME280;47692;53.714;11.372;2024-02-21T04:37:27;101173.25;;;7.11;100.00
61786;BME280;47692;53.714;11.372;2024-02-21T04:39:52;101167.19;;;7.09;100.00
61786;BME280;47692;53.714;11.372;2024-02-21T04:42:18;101167.19;;;7.08;100.00
61786;BME280;47692;53.714;11.372;2024-02-21T04:44:43;101168.91;;;7.10;100.00
61786;BME280;47692;53.714;11.372;2024-02-21T04:47:08;101178.44;;;7.11;100.00
61786;BME280;47692;53.714;11.372;2024-02-21T04:49:34;101165.47;;;7.11;100.00
61786;BME280;47692;53.714;11.372;2024-02-21T04:52:00;101170.66;;;7.13;100.00
61786;BME280;47692;53.714;11.372;2024-02-21T04:54:25;101174.09;;;7.10;100.00
61786;BME280;47692;53.714;11.372;2024-02-21T04:56:51;101179.31;;;7.10;100.00
61786;BME280;47692;53.714;11.372;2024-02-21T04:59:16;101174.09;;;7.12;100.00
61786;BME280;47692;53.714;11.372;2024-02-21T05:01:42;101174.97;;;7.17;100.00
61786;BME280;47692;53.714;11.372;2024-02-21T05:04:07;101155.94;;;7.15;100.00
61786;BME280;47692;53.714;11.372;2024-02-21T05:06:37;101166.31;;;7.14;100.00
61786;BME280;47692;53.714;11.372;2024-02-21T05:09:02;101168.91;;;7.14;100.00
61786;BME280;47692;53.714;11.372;2024-02-21T05:11:28;101156.81;;;7.19;100.00
61786;BME280;47692;53.714;11.372;2024-02-21T05:13:53;101170.63;;;7.15;100.00
61786;BME280;47692;53.714;11.372;2024-02-21T05:16:18;101167.19;;;7.19;100.00
61786;BME280;47692;53.714;11.372;2024-02-21T05:18:44;101165.44;;;7.18;100.00
61786;BME280;47692;53.714;11.372;2024-02-21T05:21:09;101169.75;;;7.17;100.00
61786;BME280;47692;53.714;11.372;2024-02-21T05:23:35;101177.56;;;7.22;100.00
61786;BME280;47692;53.714;11.372;2024-02-21T05:26:00;101175.84;;;7.24;100.00
61786;BME280;47692;53.714;11.372;2024-02-21T05:28:25;101179.28;;;7.24;100.00
61786;BME280;47692;53.714;11.372;2024-02-21T05:30:51;101178.41;;;7.21;100.00
61786;BME280;47692;53.714;11.372;2024-02-21T05:33:16;101170.63;;;7.24;100.00
61786;BME280;47692;53.714;11.372;2024-02-21T05:35:46;101168.88;;;7.20;100.00
61786;BME280;47692;53.714;11.372;2024-02-21T05:38:13;101165.44;;;7.15;100.00
61786;BME280;47692;53.714;11.372;2024-02-21T05:40:38;101168.91;;;7.14;100.00
61786;BME280;47692;53.714;11.372;2024-02-21T05:43:04;101168.91;;;7.14;100.00
61786;BME280;47692;53.714;11.372;2024-02-21T05:45:29;101175.84;;;7.11;100.00
61786;BME280;47692;53.714;11.372;2024-02-21T05:47:54;101168.91;;;7.10;100.00
61786;BME280;47692;53.714;11.372;2024-02-21T05:50:20;101186.25;;;7.10;100.00
61786;BME280;47692;53.714;11.372;2024-02-21T05:52:46;101180.19;;;7.06;100.00
61786;BME280;47692;53.714;11.372;2024-02-21T05:55:11;101178.44;;;7.02;100.00
61786;BME280;47692;53.714;11.372;2024-02-21T05:57:37;101183.63;;;7.07;100.00
61786;BME280;47692;53.714;11.372;2024-02-21T06:00:06;101184.50;;;7.04;100.00
61786;BME280;47692;53.714;11.372;2024-02-21T06:02:31;101181.03;;;7.01;100.00
61786;BME280;47692;53.714;11.372;2024-02-21T06:04:56;101181.03;;;6.94;100.00
61786;BME280;47692;53.714;11.372;2024-02-21T06:07:22;101193.16;;;6.94;100.00
61786;BME280;47692;53.714;11.372;2024-02-21T06:09:47;101195.75;;;6.99;100.00
61786;BME280;47692;53.714;11.372;2024-02-21T06:12:12;101203.56;;;7.00;100.00
61786;BME280;47692;53.714;11.372;2024-02-21T06:14:38;101203.53;;;6.97;100.00
61786;BME280;47692;53.714;11.372;2024-02-21T06:17:03;101200.09;;;6.92;100.00
61786;BME280;47692;53.714;11.372;2024-02-21T06:19:28;101205.28;;;6.98;100.00
61786;BME280;47692;53.714;11.372;2024-02-21T06:21:54;101199.22;;;6.94;100.00
61786;BME280;47692;53.714;11.372;2024-02-21T06:24:19;101212.19;;;6.93;100.00
61786;BME280;47692;53.714;11.372;2024-02-21T06:26:44;101212.19;;;6.93;100.00
61786;BME280;47692;53.714;11.372;2024-02-21T06:29:11;101203.56;;;6.94;100.00
61786;BME280;47692;53.714;11.372;2024-02-21T06:31:36;101198.34;;;6.94;100.00
61786;BME280;47692;53.714;11.372;2024-02-21T06:34:01;101203.56;;;6.88;100.00
61786;BME280;47692;53.714;11.372;2024-02-21T06:36:27;101200.09;;;6.92;100.00
61786;BME280;47692;53.714;11.372;2024-02-21T06:38:52;101207.00;;;6.85;100.00
61786;BME280;47692;53.714;11.372;2024-02-21T06:41:18;101201.81;;;6.87;100.00
61786;BME280;47692;53.714;11.372;2024-02-21T06:43:47;101212.19;;;6.90;100.00
61786;BME280;47692;53.714;11.372;2024-02-21T06:46:23;101221.72;;;6.94;100.00
61786;BME280;47692;53.714;11.372;2024-02-21T06:48:49;101213.91;;;6.91;100.00
61786;BME280;47692;53.714;11.372;2024-02-21T06:51:14;101213.06;;;6.92;100.00
61786;BME280;47692;53.714;11.372;2024-02-21T06:53:39;101221.69;;;6.92;100.00
61786;BME280;47692;53.714;11.372;2024-02-21T06:56:05;101217.41;;;6.91;100.00
61786;BME280;47692;53.714;11.372;2024-02-21T06:58:30;101213.91;;;6.91;100.00
61786;BME280;47692;53.714;11.372;2024-02-21T07:00:56;101217.38;;;6.90;100.00
61786;BME280;47692;53.714;11.372;2024-02-21T07:03:21;101217.41;;;6.91;100.00
61786;BME280;47692;53.714;11.372;2024-02-21T07:05:46;101220.84;;;6.92;100.00
61786;BME280;47692;53.714;11.372;2024-02-21T07:08:12;101229.50;;;6.91;100.00
61786;BME280;47692;53.714;11.372;2024-02-21T07:10:37;101232.94;;;6.90;100.00
61786;BME280;47692;53.714;11.372;2024-02-21T07:13:02;101239.88;;;6.91;100.00
61786;BME280;47692;53.714;11.372;2024-02-21T07:15:27;101241.63;;;6.89;100.00
61786;BME280;47692;53.714;11.372;2024-02-21T07:17:54;101245.09;;;6.94;100.00
61786;BME280;47692;53.714;11.372;2024-02-21T07:20:20;101252.88;;;6.95;100.00
61786;BME280;47692;53.714;11.372;2024-02-21T07:22:45;101252.00;;;6.98;100.00
61786;BME280;47692;53.714;11.372;2024-02-21T07:25:11;101244.22;;;6.95;100.00
61786;BME280;47692;53.714;11.372;2024-02-21T07:27:36;101252.88;;;6.97;100.00
61786;BME280;47692;53.714;11.372;2024-02-21T07:30:02;101245.94;;;6.94;100.00
61786;BME280;47692;53.714;11.372;2024-02-21T07:32:28;101252.00;;;6.97;100.00
61786;BME280;47692;53.714;11.372;2024-02-21T07:34:53;101242.47;;;6.97;100.00
61786;BME280;47692;53.714;11.372;2024-02-21T07:37:18;101234.69;;;6.94;100.00
61786;BME280;47692;53.714;11.372;2024-02-21T07:39:44;101226.88;;;6.92;100.00
61786;BME280;47692;53.714;11.372;2024-02-21T07:42:09;101222.56;;;6.90;100.00
61786;BME280;47692;53.714;11.372;2024-02-21T07:44:34;101227.75;;;6.88;100.00
61786;BME280;47692;53.714;11.372;2024-02-21T07:47:00;101247.69;;;6.86;100.00
61786;BME280;47692;53.714;11.372;2024-02-21T07:49:26;101287.47;;;6.87;100.00
61786;BME280;47692;53.714;11.372;2024-02-21T07:51:51;101244.22;;;6.90;100.00
61786;BME280;47692;53.714;11.372;2024-02-21T07:54:18;101232.97;;;6.93;100.00
61786;BME280;47692;53.714;11.372;2024-02-21T07:56:43;101237.28;;;6.89;100.00
61786;BME280;47692;53.714;11.372;2024-02-21T07:59:08;101239.03;;;6.97;100.00
61786;BME280;47692;53.714;11.372;2024-02-21T08:01:33;101227.78;;;6.99;100.00
61786;BME280;47692;53.714;11.372;2024-02-21T08:03:59;101222.59;;;6.99;100.00
61786;BME280;47692;53.714;11.372;2024-02-21T08:06:24;101232.97;;;6.99;100.00
61786;BME280;47692;53.714;11.372;2024-02-21T08:08:50;101235.56;;;7.01;100.00
61786;BME280;47692;53.714;11.372;2024-02-21T08:11:15;101246.84;;;7.07;100.00
61786;BME280;47692;53.714;11.372;2024-02-21T08:13:40;101245.09;;;7.06;100.00
61786;BME280;47692;53.714;11.372;2024-02-21T08:16:06;101263.25;;;7.14;100.00
61786;BME280;47692;53.714;11.372;2024-02-21T08:18:31;101265.00;;;7.15;100.00
61786;BME280;47692;53.714;11.372;2024-02-21T08:20:56;101264.13;;;7.21;100.00
61786;BME280;47692;53.714;11.372;2024-02-21T08:23:23;101255.47;;;7.22;100.00
61786;BME280;47692;53.714;11.372;2024-02-21T08:25:49;101258.06;;;7.22;100.00
61786;BME280;47692;53.714;11.372;2024-02-21T08:28:14;101263.28;;;7.25;100.00
61786;BME280;47692;53.714;11.372;2024-02-21T08:30:40;101261.53;;;7.28;100.00
61786;BME280;47692;53.714;11.372;2024-02-21T08:33:09;101252.88;;;7.37;100.00
61786;BME280;47692;53.714;11.372;2024-02-21T08:35:34;101250.28;;;7.37;100.00
61786;BME280;47692;53.714;11.372;2024-02-21T08:38:00;101239.03;;;7.40;100.00
61786;BME280;47692;53.714;11.372;2024-02-21T08:40:25;101236.41;;;7.38;100.00
61786;BME280;47692;53.714;11.372;2024-02-21T08:42:50;101234.69;;;7.37;100.00
61786;BME280;47692;53.714;11.372;2024-02-21T08:45:15;101242.50;;;7.37;100.00
61786;BME280;47692;53.714;11.372;2024-02-21T08:47:41;101241.63;;;7.40;100.00
61786;BME280;47692;53.714;11.372;2024-02-21T08:50:07;101244.22;;;7.46;100.00
61786;BME280;47692;53.714;11.372;2024-02-21T08:52:34;101246.78;;;7.48;100.00
61786;BME280;47692;53.714;11.372;2024-02-21T08:55:00;101249.38;;;7.55;100.00
61786;BME280;47692;53.714;11.372;2024-02-21T08:57:25;101251.97;;;7.54;100.00
61786;BME280;47692;53.714;11.372;2024-02-21T08:59:51;101258.03;;;7.62;100.00
61786;BME280;47692;53.714;11.372;2024-02-21T09:02:16;101245.88;;;7.64;100.00
61786;BME280;47692;53.714;11.372;2024-02-21T09:04:42;101247.63;;;7.67;100.00
61786;BME280;47692;53.714;11.372;2024-02-21T09:07:07;101246.75;;;7.66;100.00
61786;BME280;47692;53.714;11.372;2024-02-21T09:09:32;101233.75;;;7.69;100.00
61786;BME280;47692;53.714;11.372;2024-02-21T09:11:58;101234.59;;;7.74;100.00
61786;BME280;47692;53.714;11.372;2024-02-21T09:14:30;101227.69;;;7.70;100.00
61786;BME280;47692;53.714;11.372;2024-02-21T09:16:56;101215.56;;;7.72;100.00
61786;BME280;47692;53.714;11.372;2024-02-21T09:19:21;101226.81;;;7.68;100.00
61786;BME280;47692;53.714;11.372;2024-02-21T09:21:46;101215.56;;;7.63;100.00
61786;BME280;47692;53.714;11.372;2024-02-21T09:24:11;101219.91;;;7.64;100.00
61786;BME280;47692;53.714;11.372;2024-02-21T09:26:37;101220.78;;;7.66;100.00
61786;BME280;47692;53.714;11.372;2024-02-21T09:29:02;101220.78;;;7.66;100.00
61786;BME280;47692;53.714;11.372;2024-02-21T09:31:29;101220.75;;;7.68;100.00
61786;BME280;47692;53.714;11.372;2024-02-21T09:33:54;101219.00;;;7.68;100.00
61786;BME280;47692;53.714;11.372;2024-02-21T09:36:19;101225.09;;;7.69;100.00
61786;BME280;47692;53.714;11.372;2024-02-21T09:38:46;101224.22;;;7.71;100.00
61786;BME280;47692;53.714;11.372;2024-02-21T09:41:15;101234.59;;;7.78;100.00
61786;BME280;47692;53.714;11.372;2024-02-21T09:43:42;101215.53;;;7.79;100.00
61786;BME280;47692;53.714;11.372;2024-02-21T09:46:13;101212.06;;;7.83;100.00
61786;BME280;47692;53.714;11.372;2024-02-21T09:51:18;101225.84;;;7.96;100.00
61786;BME280;47692;53.714;11.372;2024-02-21T09:53:44;101239.66;;;8.12;100.00
61786;BME280;47692;53.714;11.372;2024-02-21T09:56:11;101235.28;;;8.26;100.00
61786;BME280;47692;53.714;11.372;2024-02-21T09:58:37;101247.34;;;8.44;100.00
61786;BME280;47692;53.714;11.372;2024-02-21T10:01:03;101244.63;;;8.66;100.00
61786;BME280;47692;53.714;11.372;2024-02-21T10:03:32;101247.97;;;8.85;100.00
61786;BME280;47692;53.714;11.372;2024-02-21T10:05:58;101244.38;;;9.00;100.00
61786;BME280;47692;53.714;11.372;2024-02-21T10:08:26;101239.09;;;9.11;100.00
61786;BME280;47692;53.714;11.372;2024-02-21T10:10:51;101220.03;;;9.05;100.00
61786;BME280;47692;53.714;11.372;2024-02-21T10:13:25;101206.25;;;8.94;100.00
61786;BME280;47692;53.714;11.372;2024-02-21T10:16:04;101194.16;;;8.84;100.00
61786;BME280;47692;53.714;11.372;2024-02-21T10:18:29;101176.88;;;8.77;100.00
61786;BME280;47692;53.714;11.372;2024-02-21T10:21:01;101171.78;;;8.64;100.00
61786;BME280;47692;53.714;11.372;2024-02-21T10:23:27;101169.19;;;8.60;100.00
61786;BME280;47692;53.714;11.372;2024-02-21T10:25:52;101169.16;;;8.64;100.00
61786;BME280;47692;53.714;11.372;2024-02-21T10:28:18;101169.22;;;8.58;100.00
61786;BME280;47692;53.714;11.372;2024-02-21T10:30:51;101170.06;;;8.57;100.00
61786;BME280;47692;53.714;11.372;2024-02-21T10:33:17;101157.97;;;8.53;100.00
61786;BME280;47692;53.714;11.372;2024-02-21T10:35:46;101166.59;;;8.58;100.00
61786;BME280;47692;53.714;11.372;2024-02-21T10:38:12;101174.38;;;8.61;100.00
61786;BME280;47692;53.714;11.372;2024-02-21T10:40:37;101177.84;;;8.63;100.00
61786;BME280;47692;53.714;11.372;2024-02-21T10:43:02;101163.94;;;8.66;100.00
61786;BME280;47692;53.714;11.372;2024-02-21T10:45:30;101172.53;;;8.76;100.00
61786;BME280;47692;53.714;11.372;2024-02-21T10:48:06;101167.28;;;8.79;100.00
61786;BME280;47692;53.714;11.372;2024-02-21T10:50:40;101158.50;;;8.92;100.00
61786;BME280;47692;53.714;11.372;2024-02-21T10:56:14;101178.22;;;9.21;100.00
61786;BME280;47692;53.714;11.372;2024-02-21T10:58:42;101165.19;;;9.21;100.00
61786;BME280;47692;53.714;11.372;2024-02-21T11:01:09;101164.34;;;9.19;100.00
61786;BME280;47692;53.714;11.372;2024-02-21T11:03:35;101166.91;;;9.25;100.00
61786;BME280;47692;53.714;11.372;2024-02-21T11:06:01;101159.09;;;9.22;100.00
61786;BME280;47692;53.714;11.372;2024-02-21T11:08:27;101157.22;;;9.36;100.00
61786;BME280;47692;53.714;11.372;2024-02-21T11:10:56;101156.31;;;9.41;100.00
61786;BME280;47692;53.714;11.372;2024-02-21T11:13:30;101144.22;;;9.33;100.00
61786;BME280;47692;53.714;11.372;2024-02-21T11:16:08;101139.84;;;9.35;100.00
61786;BME280;47692;53.714;11.372;2024-02-21T11:18:34;101134.72;;;9.29;100.00
61786;BME280;47692;53.714;11.372;2024-02-21T11:21:00;101127.78;;;9.28;100.00
61786;BME280;47692;53.714;11.372;2024-02-21T11:23:26;101126.03;;;9.30;100.00
61786;BME280;47692;53.714;11.372;2024-02-21T11:25:51;101117.41;;;9.25;100.00
61786;BME280;47692;53.714;11.372;2024-02-21T11:28:25;101120.88;;;9.24;100.00
61786;BME280;47692;53.714;11.372;2024-02-21T11:30:50;101108.78;;;9.20;100.00
61786;BME280;47692;53.714;11.372;2024-02-21T11:33:16;101100.06;;;9.21;100.00
61786;BME280;47692;53.714;11.372;2024-02-21T11:35:41;101103.63;;;9.14;100.00
61786;BME280;47692;53.714;11.372;2024-02-21T11:38:08;101103.63;;;9.14;100.00
61786;BME280;47692;53.714;11.372;2024-02-21T11:40:34;101088.00;;;9.11;100.00
61786;BME280;47692;53.714;11.372;2024-02-21T11:43:00;101088.00;;;9.14;100.00
61786;BME280;47692;53.714;11.372;2024-02-21T11:45:25;101089.75;;;9.09;100.00
61786;BME280;47692;53.714;11.372;2024-02-21T11:47:51;101082.03;;;9.04;100.00
61786;BME280;47692;53.714;11.372;2024-02-21T11:50:16;101081.19;;;9.00;100.00
61786;BME280;47692;53.714;11.372;2024-02-21T11:52:42;101076.00;;;8.97;100.00
61786;BME280;47692;53.714;11.372;2024-02-21T11:55:07;101064.78;;;8.92;100.00
61786;BME280;47692;53.714;11.372;2024-02-21T11:57:33;101064.78;;;8.91;100.00
61786;BME280;47692;53.714;11.372;2024-02-21T12:00:13;101071.75;;;8.88;100.00
61786;BME280;47692;53.714;11.372;2024-02-21T12:02:40;101064.81;;;8.89;100.00
61786;BME280;47692;53.714;11.372;2024-02-21T12:05:05;101058.75;;;8.87;100.00
61786;BME280;47692;53.714;11.372;2024-02-21T12:07:31;101051.78;;;8.89;100.00
61786;BME280;47692;53.714;11.372;2024-02-21T12:09:59;101059.53;;;8.95;100.00
61786;BME280;47692;53.714;11.372;2024-02-21T12:12:25;101037.91;;;8.87;100.00
61786;BME280;47692;53.714;11.372;2024-02-21T12:14:56;101043.06;;;8.90;100.00
61786;BME280;47692;53.714;11.372;2024-02-21T12:17:24;101044.72;;;9.00;100.00
61786;BME280;47692;53.714;11.372;2024-02-21T12:19:50;101034.38;;;8.94;100.00
61786;BME280;47692;53.714;11.372;2024-02-21T12:22:18;101026.66;;;8.86;100.00
61786;BME280;47692;53.714;11.372;2024-02-21T12:24:43;101019.00;;;8.71;100.00
61786;BME280;47692;53.714;11.372;2024-02-21T12:27:12;101024.22;;;8.69;100.00
61786;BME280;47692;53.714;11.372;2024-02-21T12:29:37;101012.19;;;8.56;100.00
61786;BME280;47692;53.714;11.372;2024-02-21T12:32:03;101010.53;;;8.43;100.00
61786;BME280;47692;53.714;11.372;2024-02-21T12:34:29;101015.75;;;8.46;100.00
61786;BME280;47692;53.714;11.372;2024-02-21T12:36:58;101012.31;;;8.40;100.00
61786;BME280;47692;53.714;11.372;2024-02-21T12:39:23;100996.75;;;8.34;100.00